Time;durP1;ratioP1;P1;durP2;ratioP2;P2;SDS_P1;SDS_P2;PMS_P1;PMS_P2;Temp;Humidity;BMP_temperature;BMP_pressure;BME280_temperature;BME280_humidity;BME280_pressure;Samples;Min_cycle;Max_cycle;Signal;HPM_P1;HPM_P2
2022/12/24 00:02:20;;;;;;;80.18;47.80;;;;;;;;;;6267378;28;20061;-77
2022/12/24 00:05:22;;;;;;;79.13;47.03;;;;;;;;;;6270127;28;20056;-78
2022/12/24 00:08:23;;;;;;;72.88;45.72;;;;;;;;;;6268710;28;20111;-78
2022/12/24 00:11:25;;;;;;;78.43;46.67;;;;;;;;;;6272209;28;20268;-75
2022/12/24 00:14:27;;;;;;;73.47;45.53;;;;;;;;;;6270905;28;20048;-75
2022/12/24 00:17:30;;;;;;;73.90;45.65;;;;;;;;;;6269789;28;20057;-75
2022/12/24 00:20:31;;;;;;;70.13;44.63;;;;;;;;;;6268571;28;20045;-76
2022/12/24 00:23:33;;;;;;;76.78;45.75;;;;;;;;;;6268159;28;20061;-73
2022/12/24 00:26:35;;;;;;;80.18;44.47;;;;;;;;;;6264013;28;20045;-74
2022/12/24 00:29:36;;;;;;;74.70;45.08;;;;;;;;;;6268196;28;20057;-75
2022/12/24 00:32:39;;;;;;;76.65;47.50;;;;;;;;;;6267676;28;20127;-75
2022/12/24 00:35:41;;;;;;;76.95;45.45;;;;;;;;;;6266221;28;20045;-76
2022/12/24 00:38:44;;;;;;;74.00;45.33;;;;;;;;;;6266264;28;20065;-76
2022/12/24 00:41:45;;;;;;;71.85;43.47;;;;;;;;;;6264029;28;20355;-75
2022/12/24 00:44:47;;;;;;;75.85;45.83;;;;;;;;;;6268921;28;20123;-70
2022/12/24 00:47:50;;;;;;;81.70;46.42;;;;;;;;;;6266241;28;20057;-75
2022/12/24 00:50:52;;;;;;;77.72;47.80;;;;;;;;;;6267167;28;20045;-75
2022/12/24 00:53:53;;;;;;;74.97;45.45;;;;;;;;;;6265039;28;20175;-75
2022/12/24 00:56:55;;;;;;;78.28;46.50;;;;;;;;;;6264261;28;20091;-75
2022/12/24 00:59:57;;;;;;;76.30;45.35;;;;;;;;;;6265779;28;20060;-75
2022/12/24 01:03:00;;;;;;;77.88;46.00;;;;;;;;;;6266750;28;20053;-75
2022/12/24 01:06:00;;;;;;;74.88;45.15;;;;;;;;;;6265436;28;20045;-74
2022/12/24 01:09:02;;;;;;;77.72;45.17;;;;;;;;;;6264916;28;20063;-74
2022/12/24 01:12:04;;;;;;;80.05;45.75;;;;;;;;;;6263199;28;20218;-75
2022/12/24 01:15:07;;;;;;;77.15;45.60;;;;;;;;;;6263505;28;20049;-75
2022/12/24 01:18:10;;;;;;;76.43;46.40;;;;;;;;;;6266529;28;20272;-74
2022/12/24 01:21:12;;;;;;;77.88;46.22;;;;;;;;;;6263031;28;20052;-76
2022/12/24 01:24:14;;;;;;;75.60;47.08;;;;;;;;;;6262923;28;20252;-72
2022/12/24 01:27:16;;;;;;;82.30;46.40;;;;;;;;;;6266194;28;20056;-74
2022/12/24 01:30:18;;;;;;;72.65;45.60;;;;;;;;;;6264505;28;20052;-75
2022/12/24 01:33:21;;;;;;;81.05;45.20;;;;;;;;;;6263995;28;20057;-75
2022/12/24 01:36:22;;;;;;;74.07;45.33;;;;;;;;;;6260555;28;20356;-75
2022/12/24 01:39:24;;;;;;;74.82;45.78;;;;;;;;;;6267311;28;20099;-76
2022/12/24 01:45:47;;;;;;;88.15;48.38;;;;;;;;;;6263252;28;20152;-74
2022/12/24 01:48:53;;;;;;;72.35;45.53;;;;;;;;;;6264347;28;20099;-74
2022/12/24 01:51:56;;;;;;;79.53;45.13;;;;;;;;;;6265669;28;20057;-75
2022/12/24 01:55:01;;;;;;;84.07;47.35;;;;;;;;;;6267305;28;20325;-75
2022/12/24 01:58:03;;;;;;;76.45;47.15;;;;;;;;;;6265102;28;20053;-73
2022/12/24 02:01:05;;;;;;;74.50;45.72;;;;;;;;;;6264140;28;20053;-72
2022/12/24 02:04:13;;;;;;;82.75;47.53;;;;;;;;;;6265649;28;20355;-70
2022/12/24 02:07:15;;;;;;;81.40;47.92;;;;;;;;;;6266369;28;20067;-76
2022/12/24 02:10:17;;;;;;;77.95;45.95;;;;;;;;;;6266958;28;20365;-75
2022/12/24 02:13:20;;;;;;;78.45;47.47;;;;;;;;;;6262431;28;20079;-75
2022/12/24 02:16:35;;;;;;;83.97;47.78;;;;;;;;;;6265636;28;20122;-76
2022/12/24 02:20:01;;;;;;;80.75;46.22;;;;;;;;;;6263795;28;20053;-71
2022/12/24 02:23:12;;;;;;;80.80;45.95;;;;;;;;;;6265490;28;20060;-75
2022/12/24 02:26:23;;;;;;;80.50;46.50;;;;;;;;;;6261211;28;20099;-75
2022/12/24 02:29:46;;;;;;;74.97;46.28;;;;;;;;;;6262215;28;20060;-72
2022/12/24 02:33:04;;;;;;;78.30;46.85;;;;;;;;;;6259392;28;20321;-76
2022/12/24 02:36:11;;;;;;;76.57;44.03;;;;;;;;;;6262779;28;20240;-75
2022/12/24 02:39:17;;;;;;;82.45;45.50;;;;;;;;;;6266331;28;20263;-74
2022/12/24 02:42:23;;;;;;;76.47;46.75;;;;;;;;;;6262171;28;20049;-75
2022/12/24 02:45:29;;;;;;;80.95;46.55;;;;;;;;;;6267199;28;20108;-76
2022/12/24 02:48:31;;;;;;;78.57;44.53;;;;;;;;;;6269460;28;20053;-75
2022/12/24 02:51:33;;;;;;;79.70;46.55;;;;;;;;;;6268292;28;20087;-75
2022/12/24 02:54:34;;;;;;;80.88;45.80;;;;;;;;;;6267851;28;20041;-75
2022/12/24 02:57:57;;;;;;;77.95;46.90;;;;;;;;;;6265557;28;20056;-75
2022/12/24 03:01:15;;;;;;;79.15;45.67;;;;;;;;;;6267583;28;20049;-75
2022/12/24 03:04:38;;;;;;;71.82;44.00;;;;;;;;;;6267518;28;20144;-75
2022/12/24 03:07:47;;;;;;;78.90;44.45;;;;;;;;;;6264609;28;20049;-75
2022/12/24 03:10:55;;;;;;;75.20;44.67;;;;;;;;;;6265748;28;20061;-75
2022/12/24 03:13:58;;;;;;;81.53;45.58;;;;;;;;;;6267914;28;20301;-75
2022/12/24 03:17:02;;;;;;;77.87;46.87;;;;;;;;;;6266831;28;20041;-75
2022/12/24 03:20:06;;;;;;;76.97;46.33;;;;;;;;;;6267914;28;20056;-74
2022/12/24 03:23:08;;;;;;;78.93;46.50;;;;;;;;;;6268008;28;20045;-75
2022/12/24 03:26:11;;;;;;;79.65;47.08;;;;;;;;;;6266166;28;20106;-74
2022/12/24 03:29:13;;;;;;;79.70;45.28;;;;;;;;;;6267220;28;20064;-75
2022/12/24 03:32:23;;;;;;;76.30;45.60;;;;;;;;;;6266848;28;20099;-71
2022/12/24 03:35:25;;;;;;;76.90;45.42;;;;;;;;;;6266821;28;20045;-75
2022/12/24 03:38:27;;;;;;;83.68;47.15;;;;;;;;;;6265573;28;20049;-73
2022/12/24 03:41:28;;;;;;;76.57;45.95;;;;;;;;;;6267855;28;20056;-76
2022/12/24 03:44:31;;;;;;;82.80;45.65;;;;;;;;;;6269326;28;20056;-71
2022/12/24 03:47:34;;;;;;;78.28;46.55;;;;;;;;;;6268252;28;20055;-73
2022/12/24 03:50:36;;;;;;;73.47;44.03;;;;;;;;;;6265149;28;20060;-70
2022/12/24 03:53:37;;;;;;;86.32;47.45;;;;;;;;;;6269290;28;20285;-75
2022/12/24 03:56:39;;;;;;;77.45;44.83;;;;;;;;;;6263886;28;20135;-75
2022/12/24 03:59:41;;;;;;;79.47;46.80;;;;;;;;;;6265466;28;20061;-74
2022/12/24 04:02:44;;;;;;;76.85;46.10;;;;;;;;;;6266043;28;20049;-74
2022/12/24 04:05:45;;;;;;;78.88;46.85;;;;;;;;;;6264646;28;20053;-76
2022/12/24 04:08:47;;;;;;;76.88;45.22;;;;;;;;;;6264738;28;20037;-73
2022/12/24 04:11:49;;;;;;;80.38;45.63;;;;;;;;;;6264266;28;20057;-74
2022/12/24 04:14:50;;;;;;;76.55;44.75;;;;;;;;;;6265028;28;20275;-75
2022/12/24 04:17:53;;;;;;;79.90;46.92;;;;;;;;;;6263863;28;20345;-75
2022/12/24 04:20:55;;;;;;;77.60;44.20;;;;;;;;;;6267306;28;20049;-76
2022/12/24 04:23:57;;;;;;;76.55;45.75;;;;;;;;;;6266246;28;20057;-75
2022/12/24 04:26:58;;;;;;;73.35;44.08;;;;;;;;;;6265453;28;20694;-76
2022/12/24 04:30:00;;;;;;;79.50;45.85;;;;;;;;;;6265595;28;20057;-75
2022/12/24 04:33:03;;;;;;;79.30;45.88;;;;;;;;;;6267035;28;20055;-76
2022/12/24 04:36:06;;;;;;;77.78;44.17;;;;;;;;;;6263809;28;20049;-74
2022/12/24 04:39:08;;;;;;;74.70;44.13;;;;;;;;;;6266564;28;20099;-72
2022/12/24 04:42:10;;;;;;;77.35;46.72;;;;;;;;;;6264842;28;20045;-75
2022/12/24 04:45:11;;;;;;;76.00;46.13;;;;;;;;;;6264621;28;20067;-75
2022/12/24 04:48:14;;;;;;;77.63;47.38;;;;;;;;;;6266086;28;20106;-75
2022/12/24 04:51:17;;;;;;;80.85;46.90;;;;;;;;;;6268200;28;20063;-75
2022/12/24 04:54:18;;;;;;;80.63;46.55;;;;;;;;;;6265558;28;20056;-75
2022/12/24 04:57:20;;;;;;;78.60;44.33;;;;;;;;;;6265260;28;20297;-75
2022/12/24 05:00:22;;;;;;;80.50;47.88;;;;;;;;;;6266214;28;20361;-74
2022/12/24 05:03:25;;;;;;;78.85;47.10;;;;;;;;;;6264879;28;20081;-75
2022/12/24 05:06:31;;;;;;;79.53;46.13;;;;;;;;;;6261150;28;20053;-76
2022/12/24 05:09:33;;;;;;;71.45;43.72;;;;;;;;;;6268280;28;20228;-76
2022/12/24 05:12:34;;;;;;;78.57;47.00;;;;;;;;;;6263645;28;20044;-74
2022/12/24 05:15:36;;;;;;;78.25;45.47;;;;;;;;;;6264032;28;20065;-75
2022/12/24 05:18:39;;;;;;;73.82;44.58;;;;;;;;;;6268726;28;20061;-71
2022/12/24 05:21:41;;;;;;;79.15;45.95;;;;;;;;;;6263806;28;20053;-75
2022/12/24 05:28:02;;;;;;;77.70;44.35;;;;;;;;;;6264476;28;20240;-75
2022/12/24 05:31:04;;;;;;;78.15;45.38;;;;;;;;;;6267254;28;20045;-75
2022/12/24 05:34:07;;;;;;;74.32;45.25;;;;;;;;;;6267102;28;20352;-75
2022/12/24 05:37:09;;;;;;;77.90;45.33;;;;;;;;;;6265337;28;20810;-75
2022/12/24 05:40:10;;;;;;;75.47;44.88;;;;;;;;;;6265274;28;20040;-73
2022/12/24 05:43:12;;;;;;;75.05;44.92;;;;;;;;;;6262188;28;20061;-75
2022/12/24 05:46:17;;;;;;;78.75;44.55;;;;;;;;;;6266628;28;20328;-71
2022/12/24 05:49:20;;;;;;;74.82;43.70;;;;;;;;;;6266355;28;20045;-74
2022/12/24 05:52:22;;;;;;;77.07;45.20;;;;;;;;;;6264856;28;20056;-75
2022/12/24 05:55:23;;;;;;;73.43;44.35;;;;;;;;;;6262324;28;20049;-75
2022/12/24 05:58:25;;;;;;;75.90;45.30;;;;;;;;;;6262973;28;20063;-75
2022/12/24 06:01:27;;;;;;;81.70;46.90;;;;;;;;;;6262214;28;20049;-75
2022/12/24 06:04:30;;;;;;;79.65;46.25;;;;;;;;;;6262161;28;20258;-75
2022/12/24 06:07:32;;;;;;;78.88;46.40;;;;;;;;;;6262365;28;20119;-75
2022/12/24 06:10:33;;;;;;;75.47;44.00;;;;;;;;;;6261370;28;20045;-75
2022/12/24 06:13:36;;;;;;;81.05;44.47;;;;;;;;;;6263314;28;20053;-75
2022/12/24 06:16:37;;;;;;;74.65;44.55;;;;;;;;;;6263373;28;20072;-74
2022/12/24 06:19:40;;;;;;;73.93;44.55;;;;;;;;;;6267564;28;20279;-75
2022/12/24 06:22:42;;;;;;;79.28;44.78;;;;;;;;;;6267819;28;20083;-72
2022/12/24 06:25:43;;;;;;;78.43;45.15;;;;;;;;;;6267422;28;20049;-74
2022/12/24 06:28:45;;;;;;;78.43;45.80;;;;;;;;;;6268765;28;20064;-75
2022/12/24 06:31:47;;;;;;;72.95;45.15;;;;;;;;;;6266858;28;20052;-75
2022/12/24 06:34:50;;;;;;;80.10;46.40;;;;;;;;;;6270202;28;20226;-72
2022/12/24 06:37:52;;;;;;;78.25;44.40;;;;;;;;;;6271385;28;20103;-73
2022/12/24 06:40:54;;;;;;;77.22;44.67;;;;;;;;;;6268969;28;20049;-70
2022/12/24 06:43:56;;;;;;;74.45;43.95;;;;;;;;;;6267317;28;20389;-73
2022/12/24 06:46:57;;;;;;;79.75;45.65;;;;;;;;;;6266999;28;20049;-75
2022/12/24 06:50:00;;;;;;;78.85;45.47;;;;;;;;;;6268561;28;20049;-72
2022/12/24 06:53:02;;;;;;;83.90;45.92;;;;;;;;;;6269301;28;20095;-70
2022/12/24 06:56:04;;;;;;;83.20;45.45;;;;;;;;;;6267399;28;20064;-75
2022/12/24 06:59:06;;;;;;;80.47;44.60;;;;;;;;;;6272112;28;20055;-74
2022/12/24 07:02:09;;;;;;;84.80;46.97;;;;;;;;;;6266879;28;20049;-75
2022/12/24 07:05:12;;;;;;;83.63;45.13;;;;;;;;;;6269692;28;20067;-69
2022/12/24 07:08:14;;;;;;;80.97;44.00;;;;;;;;;;6265710;28;20045;-72
2022/12/24 07:11:16;;;;;;;80.15;43.78;;;;;;;;;;6270726;28;20053;-73
2022/12/24 07:14:17;;;;;;;85.32;44.80;;;;;;;;;;6267825;28;20057;-69
2022/12/24 07:17:19;;;;;;;81.80;43.67;;;;;;;;;;6270971;28;20049;-72
2022/12/24 07:20:22;;;;;;;81.25;43.78;;;;;;;;;;6265950;28;20126;-73
2022/12/24 07:23:24;;;;;;;81.53;44.88;;;;;;;;;;6269177;28;20048;-73
2022/12/24 07:26:26;;;;;;;81.68;43.85;;;;;;;;;;6267245;28;20045;-74
2022/12/24 07:29:27;;;;;;;80.47;43.88;;;;;;;;;;6266042;28;20457;-73
2022/12/24 07:32:29;;;;;;;77.43;42.40;;;;;;;;;;6265298;28;20280;-74
2022/12/24 07:35:32;;;;;;;77.82;42.15;;;;;;;;;;6265296;28;20061;-75
2022/12/24 07:38:34;;;;;;;76.32;42.95;;;;;;;;;;6267137;28;20055;-73
2022/12/24 07:41:36;;;;;;;76.40;43.25;;;;;;;;;;6269568;28;20061;-71
2022/12/24 07:44:38;;;;;;;77.43;43.03;;;;;;;;;;6266044;28;20051;-74
2022/12/24 07:47:39;;;;;;;78.80;43.10;;;;;;;;;;6266079;28;20049;-74
2022/12/24 07:50:42;;;;;;;77.20;42.45;;;;;;;;;;6270586;28;20099;-74
2022/12/24 07:53:46;;;;;;;74.63;41.17;;;;;;;;;;6266828;28;20053;-75
2022/12/24 07:56:48;;;;;;;80.93;41.25;;;;;;;;;;6268562;28;20064;-71
2022/12/24 07:59:50;;;;;;;76.05;42.78;;;;;;;;;;6269134;28;20321;-70
2022/12/24 08:02:51;;;;;;;74.85;40.47;;;;;;;;;;6266643;28;20053;-75
2022/12/24 08:05:54;;;;;;;78.10;42.38;;;;;;;;;;6263820;28;20083;-75
2022/12/24 08:08:56;;;;;;;78.75;40.80;;;;;;;;;;6267563;28;20053;-74
2022/12/24 08:11:58;;;;;;;83.38;43.67;;;;;;;;;;6265433;28;20045;-76
2022/12/24 08:14:59;;;;;;;76.13;43.33;;;;;;;;;;6263877;28;20051;-75
2022/12/24 08:18:01;;;;;;;79.13;44.42;;;;;;;;;;6263182;28;20065;-76
2022/12/24 08:21:07;;;;;;;77.10;42.88;;;;;;;;;;6264040;28;20049;-76
2022/12/24 08:24:08;;;;;;;74.68;41.13;;;;;;;;;;6268340;28;20052;-75
2022/12/24 08:27:10;;;;;;;74.15;41.40;;;;;;;;;;6266824;28;20210;-75
2022/12/24 08:30:13;;;;;;;77.65;42.75;;;;;;;;;;6268304;28;20052;-74
2022/12/24 08:33:15;;;;;;;72.53;41.72;;;;;;;;;;6268147;28;20240;-74
2022/12/24 08:36:18;;;;;;;72.03;41.63;;;;;;;;;;6269049;28;20041;-77
2022/12/24 08:39:19;;;;;;;72.43;39.70;;;;;;;;;;6270314;28;20087;-73
2022/12/24 08:42:21;;;;;;;73.10;41.38;;;;;;;;;;6269793;28;20267;-75
2022/12/24 08:45:23;;;;;;;69.43;39.97;;;;;;;;;;6272332;28;20053;-75
2022/12/24 08:48:24;;;;;;;76.82;42.00;;;;;;;;;;6270770;28;20099;-75
2022/12/24 08:51:28;;;;;;;76.90;41.53;;;;;;;;;;6266659;28;20046;-73
2022/12/24 08:54:29;;;;;;;74.10;42.15;;;;;;;;;;6270193;28;20102;-74
2022/12/24 08:57:31;;;;;;;77.78;42.05;;;;;;;;;;6272342;28;20059;-74
2022/12/24 09:00:33;;;;;;;85.78;42.67;;;;;;;;;;6266733;28;20059;-75
2022/12/24 09:03:34;;;;;;;74.60;41.13;;;;;;;;;;6271832;28;20059;-72
2022/12/24 09:06:37;;;;;;;76.10;41.03;;;;;;;;;;6268861;28;20076;-75
2022/12/24 09:09:39;;;;;;;77.43;41.33;;;;;;;;;;6266918;28;20064;-73
2022/12/24 09:12:41;;;;;;;73.68;41.10;;;;;;;;;;6270144;28;20049;-74
2022/12/24 09:15:42;;;;;;;77.15;41.72;;;;;;;;;;6267867;28;20087;-74
2022/12/24 09:18:44;;;;;;;77.65;43.13;;;;;;;;;;6271927;28;20228;-74
2022/12/24 09:21:47;;;;;;;71.60;40.28;;;;;;;;;;6269883;28;20100;-74
2022/12/24 09:24:50;;;;;;;71.97;40.67;;;;;;;;;;6264918;28;20045;-74
2022/12/24 09:27:51;;;;;;;76.00;41.35;;;;;;;;;;6268580;28;20056;-74
2022/12/24 09:30:58;;;;;;;76.50;42.20;;;;;;;;;;6269062;28;20057;-74
2022/12/24 09:33:59;;;;;;;70.22;41.30;;;;;;;;;;6266548;28;20337;-73
2022/12/24 09:37:02;;;;;;;71.53;40.28;;;;;;;;;;6268234;28;20048;-74
2022/12/24 09:40:05;;;;;;;73.03;39.65;;;;;;;;;;6269368;28;20045;-75
2022/12/24 09:43:11;;;;;;;66.70;39.97;;;;;;;;;;6265787;28;20044;-75
2022/12/24 09:46:17;;;;;;;72.40;40.10;;;;;;;;;;6261330;28;20044;-73
2022/12/24 09:49:21;;;;;;;71.80;39.78;;;;;;;;;;6263026;28;20056;-73
2022/12/24 09:52:29;;;;;;;66.63;38.67;;;;;;;;;;6262902;28;20053;-73
2022/12/24 09:55:33;;;;;;;74.07;39.60;;;;;;;;;;6265846;28;20057;-73
2022/12/24 09:58:37;;;;;;;69.67;38.63;;;;;;;;;;6263611;28;20037;-73
2022/12/24 10:01:39;;;;;;;69.45;39.00;;;;;;;;;;6263358;28;20487;-73
2022/12/24 10:04:41;;;;;;;68.20;38.92;;;;;;;;;;6265881;28;20060;-74
2022/12/24 10:07:50;;;;;;;70.40;39.08;;;;;;;;;;6264306;28;20060;-74
2022/12/24 10:10:54;;;;;;;69.38;37.60;;;;;;;;;;6265940;28;20053;-75
2022/12/24 10:14:14;;;;;;;74.13;39.55;;;;;;;;;;6268128;28;20041;-74
2022/12/24 10:17:29;;;;;;;65.15;38.13;;;;;;;;;;6264760;28;20121;-72
2022/12/24 10:20:36;;;;;;;;;;;;;;;;;;6262864;28;20053;-74
2022/12/24 10:23:43;;;;;;;64.78;36.30;;;;;;;;;;6265170;28;19924;-74
2022/12/24 10:26:46;;;;;;;70.28;39.17;;;;;;;;;;6264600;28;20049;-73
2022/12/24 10:29:49;;;;;;;69.90;37.67;;;;;;;;;;6265011;28;20052;-74
2022/12/24 10:32:53;;;;;;;72.60;38.20;;;;;;;;;;6266215;28;20138;-74
2022/12/24 10:35:56;;;;;;;67.33;37.73;;;;;;;;;;6267618;28;20163;-73
2022/12/24 10:38:59;;;;;;;70.85;37.80;;;;;;;;;;6269091;28;20052;-74
2022/12/24 10:42:01;;;;;;;69.57;37.70;;;;;;;;;;6268405;28;20056;-74
2022/12/24 10:45:05;;;;;;;71.00;39.35;;;;;;;;;;6272385;28;20041;-74
2022/12/24 10:48:10;;;;;;;68.75;39.30;;;;;;;;;;6270153;28;20058;-73
2022/12/24 10:51:15;;;;;;;65.35;35.83;;;;;;;;;;6269454;28;20049;-74
2022/12/24 10:54:20;;;;;;;64.80;35.72;;;;;;;;;;6268213;28;20237;-74
2022/12/24 10:57:25;;;;;;;66.00;36.10;;;;;;;;;;6266949;28;20056;-75
2022/12/24 11:00:27;;;;;;;71.82;37.78;;;;;;;;;;6268239;28;20042;-74
2022/12/24 11:03:30;;;;;;;74.13;37.75;;;;;;;;;;6270330;28;20045;-75
2022/12/24 11:06:32;;;;;;;73.85;37.55;;;;;;;;;;6264567;28;20065;-74
2022/12/24 11:09:42;;;;;;;76.43;38.85;;;;;;;;;;6268308;28;20099;-74
2022/12/24 11:12:48;;;;;;;72.72;37.03;;;;;;;;;;6265948;28;20347;-74
2022/12/24 11:15:52;;;;;;;72.35;37.90;;;;;;;;;;6267097;28;20129;-71
2022/12/24 11:18:54;;;;;;;63.30;34.60;;;;;;;;;;6268302;28;20163;-74
2022/12/24 11:22:01;;;;;;;65.20;36.55;;;;;;;;;;6267459;28;20053;-73
2022/12/24 11:25:08;;;;;;;71.70;37.00;;;;;;;;;;6267804;28;20075;-73
2022/12/24 11:28:20;;;;;;;66.38;35.67;;;;;;;;;;6266963;28;20061;-73
2022/12/24 11:31:28;;;;;;;67.65;36.92;;;;;;;;;;6271736;28;20064;-73
2022/12/24 11:34:31;;;;;;;62.17;35.75;;;;;;;;;;6269516;28;20053;-75
2022/12/24 11:37:33;;;;;;;65.70;37.03;;;;;;;;;;6266651;28;20349;-73
2022/12/24 11:40:37;;;;;;;68.40;38.17;;;;;;;;;;6265762;28;20064;-75
2022/12/24 11:43:46;;;;;;;71.50;39.30;;;;;;;;;;6267409;28;20069;-74
2022/12/24 11:46:55;;;;;;;73.32;40.60;;;;;;;;;;6262583;28;20053;-75
2022/12/24 11:50:19;;;;;;;68.95;39.17;;;;;;;;;;6265643;28;20322;-71
2022/12/24 11:53:26;;;;;;;76.13;40.75;;;;;;;;;;6268233;28;20052;-75
2022/12/24 11:56:33;;;;;;;74.88;40.88;;;;;;;;;;6260574;28;20055;-74
2022/12/24 11:59:39;;;;;;;71.68;39.08;;;;;;;;;;6262380;28;20111;-73
2022/12/24 12:02:42;;;;;;;71.85;41.25;;;;;;;;;;6265239;28;20049;-70
2022/12/24 12:05:44;;;;;;;68.55;40.15;;;;;;;;;;6264546;28;20045;-72
2022/12/24 12:08:46;;;;;;;76.35;40.65;;;;;;;;;;6264422;28;20052;-71
2022/12/24 12:11:53;;;;;;;75.18;41.70;;;;;;;;;;6264746;28;20054;-72
2022/12/24 12:14:58;;;;;;;86.82;42.47;;;;;;;;;;6266097;28;20074;-71
2022/12/24 12:18:06;;;;;;;81.45;43.97;;;;;;;;;;6265093;28;20041;-72
2022/12/24 12:21:12;;;;;;;77.45;42.95;;;;;;;;;;6270471;28;20340;-72
2022/12/24 12:24:16;;;;;;;81.82;44.85;;;;;;;;;;6270014;28;20077;-74
2022/12/24 12:27:27;;;;;;;80.40;43.70;;;;;;;;;;6269255;28;20064;-72
2022/12/24 12:30:29;;;;;;;84.60;46.65;;;;;;;;;;6266641;28;20352;-74
2022/12/24 12:33:35;;;;;;;84.75;45.25;;;;;;;;;;6272231;28;20053;-74
2022/12/24 12:36:40;;;;;;;88.60;46.67;;;;;;;;;;6267267;28;20053;-73
2022/12/24 12:39:42;;;;;;;96.53;47.42;;;;;;;;;;6268427;28;20394;-69
2022/12/24 12:42:50;;;;;;;84.15;45.28;;;;;;;;;;6271502;28;20095;-71
2022/12/24 12:45:56;;;;;;;87.75;46.13;;;;;;;;;;6270132;28;20059;-71
2022/12/24 12:49:09;;;;;;;87.40;47.67;;;;;;;;;;6270892;28;20045;-72
2022/12/24 12:52:17;;;;;;;89.55;48.40;;;;;;;;;;6268572;28;20091;-72
2022/12/24 12:55:27;;;;;;;94.63;50.22;;;;;;;;;;6270228;28;20052;-76
2022/12/24 12:58:33;;;;;;;97.18;50.47;;;;;;;;;;6266904;28;20044;-74
2022/12/24 13:01:42;;;;;;;96.18;50.30;;;;;;;;;;6270304;28;20108;-74
2022/12/24 13:04:56;;;;;;;98.43;51.72;;;;;;;;;;6269709;28;20049;-75
2022/12/24 13:08:08;;;;;;;99.45;50.55;;;;;;;;;;6268467;28;20332;-74
2022/12/24 13:11:24;;;;;;;88.95;48.67;;;;;;;;;;6269266;28;20049;-74
2022/12/24 13:14:39;;;;;;;93.10;50.35;;;;;;;;;;6266184;28;20052;-70
2022/12/24 13:18:03;;;;;;;99.88;51.35;;;;;;;;;;6269046;28;20099;-74
2022/12/24 13:21:05;;;;;;;90.40;48.55;;;;;;;;;;6271144;28;20048;-76
2022/12/24 13:24:07;;;;;;;95.90;51.70;;;;;;;;;;6266650;28;20048;-75
2022/12/24 13:27:20;;;;;;;94.38;50.63;;;;;;;;;;6267758;28;20083;-77
2022/12/24 13:30:38;;;;;;;96.47;50.92;;;;;;;;;;6266372;28;20064;-75
2022/12/24 13:33:49;;;;;;;93.20;48.15;;;;;;;;;;6268134;28;20063;-76
2022/12/24 13:37:03;;;;;;;97.40;52.20;;;;;;;;;;6268865;28;20095;-75
2022/12/24 13:40:17;;;;;;;99.68;52.00;;;;;;;;;;6268852;28;20061;-75
2022/12/24 13:43:19;;;;;;;112.40;53.40;;;;;;;;;;6268016;28;20132;-76
2022/12/24 13:46:49;;;;;;;102.68;53.55;;;;;;;;;;6266361;28;20057;-75
2022/12/24 13:49:52;;;;;;;105.53;53.15;;;;;;;;;;6266313;28;20063;-75
2022/12/24 13:52:54;;;;;;;108.95;55.00;;;;;;;;;;6271058;28;20048;-75
2022/12/24 13:55:57;;;;;;;108.13;56.50;;;;;;;;;;6266502;28;20096;-74
2022/12/24 13:59:12;;;;;;;101.38;52.92;;;;;;;;;;6270074;28;20095;-75
2022/12/24 14:02:20;;;;;;;104.68;55.45;;;;;;;;;;6268806;28;20053;-75
2022/12/24 14:05:27;;;;;;;99.75;52.17;;;;;;;;;;6271213;28;20048;-75
2022/12/24 14:08:35;;;;;;;108.53;53.10;;;;;;;;;;6268440;28;20057;-75
2022/12/24 14:12:10;;;;;;;155.52;66.57;;;;;;;;;;6267439;28;20990;-73
2022/12/24 14:16:01;;;;;;;117.75;56.05;;;;;;;;;;6267722;28;20234;-73
2022/12/24 14:19:12;;;;;;;107.80;52.67;;;;;;;;;;6267735;28;20055;-72
2022/12/24 14:22:23;;;;;;;108.32;52.42;;;;;;;;;;6266166;28;20052;-72
2022/12/24 14:25:24;;;;;;;108.63;53.65;;;;;;;;;;6268728;28;20058;-74
2022/12/24 14:28:32;;;;;;;107.43;54.35;;;;;;;;;;6268660;28;20100;-72
2022/12/24 14:31:34;;;;;;;109.85;56.58;;;;;;;;;;6267312;28;20333;-74
2022/12/24 14:34:37;;;;;;;106.38;54.83;;;;;;;;;;6263375;28;20068;-73
2022/12/24 14:37:39;;;;;;;107.45;54.17;;;;;;;;;;6263107;28;20086;-73
2022/12/24 14:40:49;;;;;;;111.57;54.00;;;;;;;;;;6268580;28;20099;-72
2022/12/24 14:43:56;;;;;;;111.70;54.78;;;;;;;;;;6268590;28;20183;-73
2022/12/24 14:47:01;;;;;;;111.65;55.33;;;;;;;;;;6265360;28;20057;-71
2022/12/24 14:50:22;;;;;;;119.82;58.25;;;;;;;;;;6268637;28;20382;-71
2022/12/24 14:53:31;;;;;;;119.30;58.20;;;;;;;;;;6267401;28;20063;-72
2022/12/24 14:56:33;;;;;;;113.43;54.63;;;;;;;;;;6266241;28;20052;-72
2022/12/24 14:59:42;;;;;;;108.82;54.97;;;;;;;;;;6266715;28;20061;-72
2022/12/24 15:02:46;;;;;;;117.65;58.33;;;;;;;;;;6269102;28;20045;-71
2022/12/24 15:05:53;;;;;;;114.20;57.35;;;;;;;;;;6265823;28;20049;-70
2022/12/24 15:08:55;;;;;;;113.05;57.30;;;;;;;;;;6270884;28;20157;-73
2022/12/24 15:11:59;;;;;;;98.40;54.58;;;;;;;;;;6266815;28;20057;-73
2022/12/24 15:15:00;;;;;;;106.97;55.83;;;;;;;;;;6265875;28;20048;-71
2022/12/24 15:18:03;;;;;;;113.00;58.38;;;;;;;;;;6265896;28;20094;-72
2022/12/24 15:21:08;;;;;;;114.55;57.53;;;;;;;;;;6267449;28;20053;-73
2022/12/24 15:24:24;;;;;;;109.10;55.92;;;;;;;;;;6264412;28;20072;-73
2022/12/24 15:27:27;;;;;;;112.60;57.10;;;;;;;;;;6264130;28;20053;-72
2022/12/24 15:30:30;;;;;;;103.45;53.85;;;;;;;;;;6265231;28;20099;-70
2022/12/24 15:33:36;;;;;;;101.85;54.03;;;;;;;;;;6265982;28;20048;-73
2022/12/24 15:36:39;;;;;;;103.85;54.70;;;;;;;;;;6268289;28;20341;-75
2022/12/24 15:39:41;;;;;;;106.47;55.43;;;;;;;;;;6263705;28;20049;-71
2022/12/24 15:42:43;;;;;;;101.30;54.25;;;;;;;;;;6266786;28;20049;-67
2022/12/24 15:45:47;;;;;;;104.43;54.03;;;;;;;;;;6268058;28;20069;-69
2022/12/24 15:48:49;;;;;;;102.47;52.95;;;;;;;;;;6266929;28;20049;-70
2022/12/24 15:51:52;;;;;;;100.90;54.47;;;;;;;;;;6264738;28;20313;-71
2022/12/24 15:54:54;;;;;;;114.50;54.42;;;;;;;;;;6265262;28;20056;-70
2022/12/24 15:57:56;;;;;;;109.97;56.25;;;;;;;;;;6264681;28;20648;-70
2022/12/24 16:01:06;;;;;;;110.22;55.50;;;;;;;;;;6267932;28;20052;-70
2022/12/24 16:04:13;;;;;;;115.20;56.40;;;;;;;;;;6264313;28;20057;-72
2022/12/24 16:07:25;;;;;;;113.85;56.22;;;;;;;;;;6265283;28;20079;-72
2022/12/24 16:10:27;;;;;;;116.65;57.83;;;;;;;;;;6264231;28;20049;-71
2022/12/24 16:13:30;;;;;;;116.13;56.45;;;;;;;;;;6265388;28;20053;-72
2022/12/24 16:16:35;;;;;;;113.75;56.92;;;;;;;;;;6265411;28;20056;-72
2022/12/24 16:19:38;;;;;;;122.97;58.17;;;;;;;;;;6263374;28;20049;-72
2022/12/24 16:22:41;;;;;;;129.50;60.95;;;;;;;;;;6265568;28;20045;-71
2022/12/24 16:25:43;;;;;;;129.60;59.60;;;;;;;;;;6266229;28;20344;-70
2022/12/24 16:28:44;;;;;;;129.73;60.58;;;;;;;;;;6267706;28;20752;-72
2022/12/24 16:31:48;;;;;;;127.50;61.30;;;;;;;;;;6268135;28;20057;-72
2022/12/24 16:34:49;;;;;;;131.02;62.78;;;;;;;;;;6265902;28;20048;-72
2022/12/24 16:37:53;;;;;;;131.55;61.03;;;;;;;;;;6262768;28;20059;-72
2022/12/24 16:40:54;;;;;;;130.85;60.85;;;;;;;;;;6263486;28;20336;-72
2022/12/24 16:43:55;;;;;;;139.75;65.32;;;;;;;;;;6264413;28;20056;-71
2022/12/24 16:46:59;;;;;;;139.23;64.90;;;;;;;;;;6265631;28;20056;-73
2022/12/24 16:50:01;;;;;;;136.13;65.28;;;;;;;;;;6266356;28;20065;-72
2022/12/24 16:53:04;;;;;;;146.40;64.78;;;;;;;;;;6264158;28;20337;-69
2022/12/24 16:56:06;;;;;;;144.73;63.78;;;;;;;;;;6264557;28;20348;-71
2022/12/24 16:59:10;;;;;;;141.27;67.55;;;;;;;;;;6264557;28;20056;-71
2022/12/24 17:02:13;;;;;;;138.43;65.43;;;;;;;;;;6264313;28;20044;-71
2022/12/24 17:05:16;;;;;;;152.63;65.60;;;;;;;;;;6263685;28;20053;-71
2022/12/24 17:08:19;;;;;;;147.38;64.20;;;;;;;;;;6264680;28;20087;-71
2022/12/24 17:11:22;;;;;;;148.25;66.25;;;;;;;;;;6261857;28;20053;-71
2022/12/24 17:14:24;;;;;;;145.48;65.40;;;;;;;;;;6261743;28;20061;-72
2022/12/24 17:17:27;;;;;;;156.98;68.00;;;;;;;;;;6265630;28;20061;-71
2022/12/24 17:20:29;;;;;;;148.13;70.20;;;;;;;;;;6265165;28;20037;-70
2022/12/24 17:23:32;;;;;;;149.02;68.57;;;;;;;;;;6267278;28;20056;-71
2022/12/24 17:26:34;;;;;;;144.97;68.57;;;;;;;;;;6264360;28;20057;-69
2022/12/24 17:29:36;;;;;;;145.15;66.63;;;;;;;;;;6261750;28;20061;-72
2022/12/24 17:32:38;;;;;;;143.27;64.68;;;;;;;;;;6266998;28;20386;-71
2022/12/24 17:35:40;;;;;;;137.98;64.90;;;;;;;;;;6264192;28;20065;-71
2022/12/24 17:38:43;;;;;;;152.05;64.88;;;;;;;;;;6265992;28;20041;-72
2022/12/24 17:41:46;;;;;;;141.23;66.97;;;;;;;;;;6262412;28;20052;-71
2022/12/24 17:44:47;;;;;;;143.38;67.55;;;;;;;;;;6265180;28;20118;-71
2022/12/24 17:47:49;;;;;;;146.90;66.70;;;;;;;;;;6264403;28;20052;-71
2022/12/24 17:50:51;;;;;;;139.43;66.20;;;;;;;;;;6266631;28;20064;-71
2022/12/24 17:53:54;;;;;;;131.40;63.35;;;;;;;;;;6263879;28;20045;-71
2022/12/24 17:56:55;;;;;;;129.32;63.45;;;;;;;;;;6265059;28;20083;-71